createdAt,value
2019-04-28T00:00:16.871Z,7.15
2019-04-28T00:05:24.521Z,8.37
2019-04-28T00:10:32.338Z,9.54
2019-04-28T00:15:41.703Z,9.45
2019-04-28T00:20:47.470Z,8.36
2019-04-28T00:25:55.237Z,12.23
2019-04-28T00:31:02.959Z,8.33
2019-04-28T00:36:11.555Z,10.98
2019-04-28T00:41:18.037Z,6.96
2019-04-28T00:46:25.765Z,7.77
2019-04-28T00:51:33.573Z,8.42
2019-04-28T00:56:42.020Z,8.65
2019-04-28T01:01:48.653Z,10.09
2019-04-28T01:06:56.296Z,9.70
2019-04-28T01:12:04.041Z,8.83
2019-04-28T01:17:11.685Z,7.87
2019-04-28T01:22:20.138Z,8.28
2019-04-28T01:27:26.684Z,9.14
2019-04-28T01:32:34.502Z,8.13
2019-04-28T01:37:42.164Z,10.15
2019-04-28T01:42:50.045Z,8.31
2019-04-28T01:47:59.823Z,9.75
2019-04-28T01:53:05.713Z,8.16
2019-04-28T01:58:13.337Z,10.04
2019-04-28T02:03:21.046Z,8.35
2019-04-28T02:08:30.132Z,9.02
2019-04-28T02:13:35.921Z,8.98
2019-04-28T02:18:43.507Z,11.13
2019-04-28T02:23:51.490Z,9.08
2019-04-28T02:29:00.280Z,10.81
2019-04-28T02:34:06.323Z,8.63
2019-04-28T02:39:14.945Z,8.32
2019-04-28T02:44:23.601Z,9.20
2019-04-28T02:49:30.689Z,9.32
2019-04-28T02:54:37.193Z,10.49
2019-04-28T02:59:45.079Z,8.89
2019-04-28T03:04:52.639Z,12.34
2019-04-28T03:10:03.189Z,8.86
2019-04-28T03:15:10.173Z,13.57
2019-04-28T03:20:14.857Z,9.13
2019-04-28T03:25:22.637Z,9.19
2019-04-28T03:30:33.745Z,9.89
2019-04-28T03:35:37.769Z,9.55
2019-04-28T03:40:45.346Z,9.15
2019-04-28T03:45:53.079Z,11.43
2019-04-28T03:51:01.005Z,8.37
2019-04-28T03:56:11.191Z,10.61
2019-04-28T04:01:15.912Z,9.02
2019-04-28T04:06:23.705Z,11.48
2019-04-28T04:11:31.401Z,10.14
2019-04-28T04:16:40.555Z,8.84
2019-04-28T04:21:46.243Z,8.76
2019-04-28T04:26:53.959Z,15.27
2019-04-28T04:32:11.678Z,9.36
2019-04-28T04:37:12.186Z,10.31
2019-04-28T04:42:16.550Z,8.63
2019-04-28T04:47:24.299Z,10.92
2019-04-28T04:52:32.019Z,9.07
2019-04-28T04:57:40.868Z,9.91
2019-04-28T05:02:53.007Z,10.87
2019-04-28T05:07:55.473Z,9.41
2019-04-28T05:13:03.136Z,10.10
2019-04-28T05:18:10.973Z,10.89
2019-04-28T05:23:19.642Z,13.48
2019-04-28T05:28:25.896Z,10.77
2019-04-28T05:33:34.065Z,12.08
2019-04-28T05:38:42.141Z,11.35
2019-04-28T05:43:48.013Z,9.52
2019-04-28T05:48:55.722Z,11.11
2019-04-28T05:54:03.362Z,12.93
2019-04-28T05:59:11.169Z,12.03
2019-04-28T06:04:19.918Z,10.87
2019-04-28T06:09:26.171Z,11.29
2019-04-28T06:14:33.913Z,11.73
2019-04-28T06:19:41.890Z,13.16
2019-04-28T06:24:49.677Z,11.58
2019-04-28T06:29:58.545Z,11.90
2019-04-28T06:35:06.312Z,13.18
2019-04-28T06:40:15.003Z,9.64
2019-04-28T06:45:22.653Z,14.48
2019-04-28T06:50:30.756Z,12.93
2019-04-28T06:55:38.437Z,11.56
2019-04-28T07:00:46.194Z,15.79
2019-04-28T07:05:53.858Z,15.43
2019-04-28T07:11:01.668Z,13.13
2019-04-28T07:16:09.377Z,13.92
2019-04-28T07:21:17.173Z,13.92
2019-04-28T07:26:24.841Z,13.01
2019-04-28T07:31:32.623Z,13.66
2019-04-28T07:36:40.296Z,15.45
2019-04-28T07:41:48.046Z,13.97
2019-04-28T07:46:56.749Z,16.45
2019-04-28T07:52:04.490Z,15.69
2019-04-28T07:57:12.130Z,18.09
2019-04-28T08:02:19.969Z,16.07
2019-04-28T08:07:27.657Z,17.10
2019-04-28T08:12:35.480Z,19.99
2019-04-28T08:17:43.116Z,15.99
2019-04-28T08:22:50.753Z,14.64
2019-04-28T08:27:58.447Z,17.33
2019-04-28T08:33:07.106Z,15.82
2019-04-28T08:38:14.877Z,17.85
2019-04-28T08:43:22.560Z,15.31
2019-04-28T08:48:30.188Z,13.91
2019-04-28T08:53:37.862Z,15.51
2019-04-28T08:58:45.521Z,14.87
2019-04-28T09:03:53.229Z,13.74
2019-04-28T09:09:00.902Z,14.46
2019-04-28T09:14:08.695Z,13.78
2019-04-28T09:19:16.350Z,11.58
2019-04-28T09:24:24.187Z,12.06
2019-04-28T09:29:31.789Z,14.13
2019-04-28T09:34:39.389Z,15.55
2019-04-28T09:39:47.125Z,12.33
2019-04-28T09:44:54.837Z,12.85
2019-04-28T09:50:02.546Z,11.58
2019-04-28T09:55:10.229Z,12.84
2019-04-28T10:00:17.858Z,10.56
2019-04-28T10:05:25.502Z,12.24
2019-04-28T10:10:33.134Z,11.81
2019-04-28T10:15:41.016Z,9.90
2019-04-28T10:20:48.716Z,8.94
2019-04-28T10:25:56.399Z,8.83
2019-04-28T10:31:04.073Z,6.36
2019-04-28T10:36:11.769Z,6.79
2019-04-28T10:41:19.542Z,6.11
2019-04-28T10:46:27.179Z,7.54
2019-04-28T10:51:34.914Z,6.21
2019-04-28T10:56:42.546Z,6.03
2019-04-28T11:01:50.223Z,5.43
2019-04-28T11:06:58.007Z,4.96
2019-04-28T11:12:05.742Z,6.66
2019-04-28T11:17:13.521Z,7.14
2019-04-28T11:22:22.140Z,6.14
2019-04-28T11:27:29.909Z,5.34
2019-04-28T11:32:37.585Z,6.70
2019-04-28T11:37:45.405Z,8.29
2019-04-28T11:42:53.134Z,5.25
2019-04-28T11:48:00.906Z,6.19
2019-04-28T11:53:08.591Z,6.92
2019-04-28T11:58:16.657Z,7.11
2019-04-28T12:03:24.355Z,6.25
2019-04-28T12:08:35.189Z,7.10
2019-04-28T12:13:32.843Z,6.13
2019-04-28T12:18:40.576Z,6.61
2019-04-28T12:23:48.250Z,6.52
2019-04-28T12:28:55.890Z,6.71
2019-04-28T12:34:03.573Z,5.58
2019-04-28T12:39:11.175Z,5.69
2019-04-28T12:44:18.842Z,7.02
2019-04-28T12:49:26.545Z,6.32
2019-04-28T12:54:34.323Z,6.87
2019-04-28T12:59:41.966Z,7.03
2019-04-28T13:04:49.661Z,7.45
2019-04-28T13:09:57.324Z,6.95
2019-04-28T13:15:05.065Z,4.90
2019-04-28T13:20:12.726Z,6.07
2019-04-28T13:25:20.416Z,6.52
2019-04-28T13:30:28.096Z,6.53
2019-04-28T13:35:35.825Z,6.12
2019-04-28T13:40:43.516Z,6.94
2019-04-28T13:45:51.294Z,7.76
2019-04-28T13:50:58.918Z,5.10
2019-04-28T13:56:06.598Z,6.15
2019-04-28T14:01:14.297Z,5.55
2019-04-28T14:06:28.516Z,5.28
2019-04-28T14:11:30.282Z,5.13
2019-04-28T14:16:38.017Z,3.97
2019-04-28T14:21:45.734Z,5.42
2019-04-28T14:26:53.493Z,4.71
2019-04-28T14:32:01.345Z,5.11
2019-04-28T14:37:08.997Z,5.60
2019-04-28T14:42:16.992Z,4.69
2019-04-28T14:47:25.493Z,4.67
2019-04-28T14:52:33.202Z,4.05
2019-04-28T14:57:40.961Z,4.49
2019-04-28T15:02:49.599Z,6.24
2019-04-28T15:07:57.823Z,6.16
2019-04-28T15:13:05.815Z,5.44
2019-04-28T15:18:13.645Z,3.90
2019-04-28T15:23:21.306Z,3.87
2019-04-28T15:28:29.010Z,4.25
2019-04-28T15:33:36.638Z,3.97
2019-04-28T15:38:44.297Z,4.33
2019-04-28T15:43:51.946Z,6.29
2019-04-28T15:48:59.613Z,9.35
2019-04-28T15:54:07.262Z,11.38
2019-04-28T15:59:14.899Z,11.49
2019-04-28T16:04:22.606Z,11.64
2019-04-28T16:09:30.393Z,11.39
2019-04-28T16:14:37.990Z,11.28
2019-04-28T16:19:45.717Z,12.88
2019-04-28T16:24:53.357Z,9.84
2019-04-28T16:30:00.988Z,11.52
2019-04-28T16:35:08.683Z,10.01
2019-04-28T16:40:16.426Z,9.34
2019-04-28T16:45:24.010Z,8.87
2019-04-28T16:50:31.728Z,10.92
2019-04-28T16:55:39.426Z,11.77
2019-04-28T17:00:47.278Z,12.90
2019-04-28T17:05:54.933Z,9.79
2019-04-28T17:11:02.625Z,10.09
2019-04-28T17:16:10.349Z,9.99
2019-04-28T17:21:18.089Z,9.98
2019-04-28T17:26:25.828Z,10.22
2019-04-28T17:31:33.525Z,11.79
2019-04-28T17:36:41.305Z,11.52
2019-04-28T17:41:49.001Z,9.90
2019-04-28T17:46:56.804Z,14.40
2019-04-28T17:52:04.774Z,12.82
2019-04-28T17:57:12.439Z,7.64
2019-04-28T18:02:20.097Z,6.56
2019-04-28T18:07:27.747Z,7.57
2019-04-28T18:12:36.558Z,8.64
2019-04-28T18:17:45.175Z,7.22
2019-04-28T18:22:52.819Z,6.08
2019-04-28T18:28:00.477Z,5.29
2019-04-28T18:33:08.111Z,4.29
2019-04-28T18:38:15.819Z,4.62
2019-04-28T18:43:23.666Z,5.46
2019-04-28T18:48:31.353Z,4.40
2019-04-28T18:53:39.085Z,5.08
2019-04-28T18:58:46.769Z,4.27
2019-04-28T19:03:54.592Z,5.32
2019-04-28T19:09:02.171Z,7.17
2019-04-28T19:14:10.030Z,5.54
2019-04-28T19:19:17.781Z,6.86
2019-04-28T19:24:25.455Z,6.94
2019-04-28T19:29:33.433Z,6.41
2019-04-28T19:34:41.945Z,5.73
2019-04-28T19:39:49.890Z,5.49
2019-04-28T19:44:57.776Z,5.61
2019-04-28T19:50:05.825Z,5.15
2019-04-28T19:55:13.563Z,6.16
2019-04-28T20:00:21.239Z,6.51
2019-04-28T20:05:28.949Z,6.64
2019-04-28T20:10:36.668Z,6.77
2019-04-28T20:15:44.297Z,5.53
2019-04-28T20:20:52.144Z,6.60
2019-04-28T20:26:01.205Z,5.17
2019-04-28T20:31:09.178Z,5.96
2019-04-28T20:36:18.169Z,4.95
2019-04-28T20:41:26.503Z,5.63
2019-04-28T20:46:35.323Z,4.78
2019-04-28T20:51:43.135Z,6.09
2019-04-28T20:56:54.638Z,5.26
2019-04-28T21:01:52.412Z,5.97
2019-04-28T21:07:00.258Z,5.06
2019-04-28T21:12:08.339Z,5.68
2019-04-28T21:17:16.102Z,6.03
2019-04-28T21:22:23.869Z,5.93
2019-04-28T21:27:32.014Z,6.68
2019-04-28T21:32:40.182Z,7.79
2019-04-28T21:37:47.935Z,7.32
2019-04-28T21:42:55.718Z,8.44
2019-04-28T21:48:03.589Z,7.86
2019-04-28T21:53:11.740Z,8.49
2019-04-28T21:58:32.241Z,8.95
2019-04-28T22:03:27.517Z,8.45
2019-04-28T22:08:35.504Z,7.58
2019-04-28T22:13:43.409Z,8.49
2019-04-28T22:18:51.230Z,9.59
2019-04-28T22:23:59.130Z,8.17
2019-04-28T22:29:07.026Z,7.76
2019-04-28T22:34:14.909Z,7.27
2019-04-28T22:39:22.749Z,8.94
2019-04-28T22:44:30.943Z,8.11
2019-04-28T22:49:38.792Z,7.88
2019-04-28T22:54:46.539Z,8.26
2019-04-28T22:59:55.554Z,9.24
2019-04-28T23:05:04.411Z,9.17
2019-04-28T23:10:12.446Z,7.81
2019-04-28T23:15:20.376Z,7.63
2019-04-28T23:20:28.138Z,8.40
2019-04-28T23:25:36.154Z,8.19
2019-04-28T23:30:43.973Z,8.33
2019-04-28T23:35:52.249Z,8.34
2019-04-28T23:41:00.132Z,8.60
2019-04-28T23:46:08.133Z,7.94
2019-04-28T23:51:16.178Z,8.92
2019-04-28T23:56:24.048Z,8.63
